createdAt,value
2018-12-13T00:00:49.891Z,6.67
2018-12-13T00:03:18.106Z,8.33
2018-12-13T00:05:46.485Z,7.87
2018-12-13T00:08:14.722Z,6.77
2018-12-13T00:10:42.999Z,8.07
2018-12-13T00:13:11.336Z,7.77
2018-12-13T00:15:39.610Z,8.10
2018-12-13T00:18:08.098Z,8.50
2018-12-13T00:20:36.958Z,7.13
2018-12-13T00:23:05.302Z,7.53
2018-12-13T00:25:33.570Z,7.47
2018-12-13T00:28:01.917Z,8.20
2018-12-13T00:30:30.498Z,8.20
2018-12-13T00:32:58.758Z,6.67
2018-12-13T00:35:27.124Z,7.17
2018-12-13T00:37:55.425Z,6.60
2018-12-13T00:40:23.765Z,8.63
2018-12-13T00:42:52.121Z,8.00
2018-12-13T00:45:20.376Z,8.07
2018-12-13T00:47:48.772Z,7.77
2018-12-13T00:50:17.002Z,7.40
2018-12-13T00:52:45.408Z,8.67
2018-12-13T00:55:13.722Z,8.63
2018-12-13T00:57:42.150Z,8.10
2018-12-13T01:00:11.328Z,7.63
2018-12-13T01:02:40.125Z,7.23
2018-12-13T01:05:08.364Z,6.23
2018-12-13T01:07:36.678Z,9.07
2018-12-13T01:10:05.264Z,8.83
2018-12-13T01:12:33.814Z,5.80
2018-12-13T01:15:02.068Z,8.10
2018-12-13T01:17:30.380Z,5.10
2018-12-13T01:19:58.650Z,5.93
2018-12-13T01:22:27.522Z,7.73
2018-12-13T01:24:55.813Z,6.37
2018-12-13T01:27:24.606Z,8.70
2018-12-13T01:29:53.196Z,7.73
2018-12-13T01:32:21.486Z,6.77
2018-12-13T01:34:49.787Z,6.97
2018-12-13T01:37:18.026Z,6.87
2018-12-13T01:39:46.372Z,8.93
2018-12-13T01:42:14.669Z,9.17
2018-12-13T01:44:43.164Z,11.27
2018-12-13T01:47:11.426Z,12.87
2018-12-13T01:49:39.731Z,12.47
2018-12-13T01:52:07.999Z,13.13
2018-12-13T01:54:36.378Z,12.47
2018-12-13T01:57:04.764Z,12.67
2018-12-13T01:59:33.049Z,14.37
2018-12-13T02:02:01.375Z,13.47
2018-12-13T02:04:29.683Z,12.00
2018-12-13T02:06:58.770Z,13.10
2018-12-13T02:09:27.474Z,14.73
2018-12-13T02:11:56.424Z,11.03
2018-12-13T02:14:24.834Z,11.73
2018-12-13T02:16:53.144Z,12.63
2018-12-13T02:19:21.457Z,11.63
2018-12-13T02:21:49.810Z,15.37
2018-12-13T02:24:18.155Z,12.83
2018-12-13T02:26:47.145Z,13.13
2018-12-13T02:29:15.452Z,11.73
2018-12-13T02:31:43.777Z,12.73
2018-12-13T02:34:12.045Z,14.53
2018-12-13T02:36:40.374Z,12.73
2018-12-13T02:39:08.602Z,13.83
2018-12-13T02:41:37.029Z,11.63
2018-12-13T02:44:05.339Z,10.17
2018-12-13T02:46:33.675Z,14.17
2018-12-13T02:49:07.474Z,13.03
2018-12-13T02:51:41.076Z,13.80
2018-12-13T02:54:09.391Z,14.37
2018-12-13T02:56:37.792Z,13.97
2018-12-13T02:59:06.181Z,14.83
2018-12-13T03:01:36.539Z,11.87
2018-12-13T03:04:04.952Z,10.17
2018-12-13T03:06:34.527Z,10.60
2018-12-13T03:09:07.381Z,12.47
2018-12-13T03:11:35.773Z,12.13
2018-12-13T03:14:07.420Z,12.17
2018-12-13T03:16:38.854Z,11.93
2018-12-13T03:19:08.749Z,10.87
2018-12-13T03:21:39.037Z,10.23
2018-12-13T03:24:07.641Z,10.23
2018-12-13T03:26:36.114Z,11.93
2018-12-13T03:29:04.720Z,10.67
2018-12-13T03:31:37.517Z,13.17
2018-12-13T03:34:07.842Z,9.67
2018-12-13T03:36:44.584Z,12.60
2018-12-13T03:39:19.325Z,10.43
2018-12-13T03:41:48.059Z,11.93
2018-12-13T03:44:20.986Z,10.73
2018-12-13T03:46:51.141Z,14.13
2018-12-13T03:49:20.838Z,10.70
2018-12-13T03:51:52.284Z,14.30
2018-12-13T03:54:21.074Z,12.23
2018-12-13T03:56:49.512Z,12.67
2018-12-13T03:59:17.762Z,11.43
2018-12-13T04:01:46.136Z,13.27
2018-12-13T04:04:14.595Z,12.10
2018-12-13T04:07:01.058Z,16.30
2018-12-13T04:09:29.370Z,13.40
2018-12-13T04:11:57.780Z,11.70
2018-12-13T04:14:26.091Z,14.30
2018-12-13T04:16:54.483Z,14.67
2018-12-13T04:19:25.491Z,10.30
2018-12-13T04:21:55.801Z,13.27
2018-12-13T04:24:26.028Z,17.13
2018-12-13T04:26:57.213Z,17.70
2018-12-13T04:29:28.042Z,12.13
2018-12-13T04:31:59.273Z,13.73
2018-12-13T04:34:29.987Z,14.37
2018-12-13T04:37:00.478Z,13.07
2018-12-13T04:39:31.410Z,14.13
2018-12-13T04:42:02.540Z,14.47
2018-12-13T04:44:31.459Z,14.70
2018-12-13T04:47:00.633Z,14.73
2018-12-13T04:49:30.229Z,15.27
2018-12-13T04:51:59.374Z,15.90
2018-12-13T04:54:27.808Z,14.07
2018-12-13T04:56:56.215Z,12.00
2018-12-13T04:59:24.549Z,14.60
2018-12-13T05:01:52.949Z,13.93
2018-12-13T05:06:52.703Z,13.50
2018-12-13T05:12:29.423Z,14.60
2018-12-13T05:14:58.695Z,18.13
2018-12-13T05:17:26.970Z,12.37
2018-12-13T05:19:55.338Z,15.20
2018-12-13T05:22:23.695Z,14.83
2018-12-13T05:24:51.885Z,15.37
2018-12-13T05:27:20.496Z,12.27
2018-12-13T05:29:48.830Z,13.33
2018-12-13T05:32:17.198Z,13.87
2018-12-13T05:34:46.491Z,13.90
2018-12-13T05:37:14.863Z,17.00
2018-12-13T05:39:43.084Z,14.27
2018-12-13T05:42:11.716Z,15.43
2018-12-13T05:44:40.415Z,14.27
2018-12-13T05:47:09.237Z,15.40
2018-12-13T05:49:38.500Z,12.10
2018-12-13T05:52:07.707Z,15.93
2018-12-13T05:54:36.031Z,17.53
2018-12-13T05:57:04.682Z,15.20
2018-12-13T05:59:33.558Z,17.60
2018-12-13T06:02:02.095Z,14.83
2018-12-13T06:04:33.793Z,15.50
2018-12-13T06:07:02.135Z,14.33
2018-12-13T06:09:30.979Z,15.97
2018-12-13T06:11:59.366Z,18.63
2018-12-13T06:14:27.728Z,16.33
2018-12-13T06:16:56.043Z,19.10
2018-12-13T06:19:26.848Z,20.70
2018-12-13T06:21:54.655Z,17.90
2018-12-13T06:24:23.011Z,18.20
2018-12-13T06:26:51.359Z,15.20
2018-12-13T06:29:19.755Z,17.10
2018-12-13T06:31:48.141Z,19.47
2018-12-13T06:34:17.167Z,16.60
2018-12-13T06:36:45.498Z,19.10
2018-12-13T06:39:14.650Z,21.87
2018-12-13T06:41:42.897Z,17.27
2018-12-13T06:44:11.148Z,17.70
2018-12-13T06:46:39.462Z,18.03
2018-12-13T06:49:07.733Z,19.23
2018-12-13T06:51:36.422Z,19.10
2018-12-13T06:54:04.689Z,17.97
2018-12-13T06:56:32.935Z,23.43
2018-12-13T06:59:01.346Z,18.63
2018-12-13T07:01:30.160Z,22.43
2018-12-13T07:03:58.513Z,17.17
2018-12-13T07:06:27.249Z,18.73
2018-12-13T07:08:55.632Z,16.30
2018-12-13T07:11:23.932Z,18.43
2018-12-13T07:13:52.309Z,13.53
2018-12-13T07:16:20.786Z,14.77
2018-12-13T07:18:49.114Z,17.63
2018-12-13T07:21:17.400Z,14.90
2018-12-13T07:23:45.701Z,14.03
2018-12-13T07:26:14.188Z,26.33
2018-12-13T07:28:42.505Z,20.07
2018-12-13T07:31:11.746Z,17.53
2018-12-13T07:33:39.993Z,17.20
2018-12-13T07:36:08.553Z,18.43
2018-12-13T07:38:37.270Z,16.73
2018-12-13T07:41:06.651Z,15.47
2018-12-13T07:43:35.737Z,14.47
2018-12-13T07:46:04.041Z,17.00
2018-12-13T07:48:32.989Z,20.20
2018-12-13T07:51:02.594Z,14.43
2018-12-13T07:53:31.591Z,19.40
2018-12-13T07:56:00.499Z,14.47
2018-12-13T07:58:28.876Z,20.43
2018-12-13T08:00:57.120Z,14.60
2018-12-13T08:03:25.506Z,16.43
2018-12-13T08:05:55.537Z,18.53
2018-12-13T08:08:24.051Z,14.73
2018-12-13T08:10:52.372Z,17.80
2018-12-13T08:13:20.973Z,17.50
2018-12-13T08:15:50.083Z,16.30
2018-12-13T08:18:18.830Z,19.10
2018-12-13T08:20:47.110Z,18.13
2018-12-13T08:23:15.879Z,17.37
2018-12-13T08:25:44.221Z,17.27
2018-12-13T08:28:13.418Z,19.03
2018-12-13T08:30:41.690Z,18.00
2018-12-13T08:33:10.068Z,17.83
2018-12-13T08:35:38.341Z,15.57
2018-12-13T08:38:06.924Z,18.73
2018-12-13T08:40:35.503Z,15.73
2018-12-13T08:43:04.689Z,18.30
2018-12-13T08:45:32.947Z,17.27
2018-12-13T08:48:01.293Z,19.23
2018-12-13T08:50:30.376Z,19.13
2018-12-13T08:52:59.419Z,17.10
2018-12-13T08:55:28.130Z,16.50
2018-12-13T08:57:57.938Z,16.20
2018-12-13T09:00:26.269Z,20.23
2018-12-13T09:02:54.544Z,17.20
2018-12-13T09:05:22.859Z,15.40
2018-12-13T09:07:51.272Z,19.40
2018-12-13T09:10:20.841Z,15.70
2018-12-13T09:12:49.430Z,21.07
2018-12-13T09:15:17.850Z,15.37
2018-12-13T09:17:46.121Z,17.60
2018-12-13T09:20:16.652Z,17.50
2018-12-13T09:22:46.880Z,17.43
2018-12-13T09:25:16.706Z,13.73
2018-12-13T09:27:48.092Z,15.40
2018-12-13T09:30:16.559Z,17.73
2018-12-13T09:32:45.121Z,17.70
2018-12-13T09:35:32.093Z,17.40
2018-12-13T09:38:00.326Z,23.40
2018-12-13T09:40:28.727Z,15.47
2018-12-13T09:42:57.732Z,15.87
2018-12-13T09:45:26.125Z,15.87
2018-12-13T09:47:54.536Z,15.30
2018-12-13T09:50:24.560Z,13.77
2018-12-13T09:52:53.317Z,14.00
2018-12-13T09:55:21.690Z,15.90
2018-12-13T09:57:50.172Z,18.13
2018-12-13T10:00:18.561Z,13.80
2018-12-13T10:02:46.865Z,15.57
2018-12-13T10:05:15.195Z,13.37
2018-12-13T10:07:45.008Z,17.13
2018-12-13T10:10:13.602Z,16.57
2018-12-13T10:12:41.971Z,14.43
2018-12-13T10:15:10.386Z,14.63
2018-12-13T10:17:38.688Z,14.23
2018-12-13T10:20:07.248Z,17.10
2018-12-13T10:22:35.633Z,13.97
2018-12-13T10:25:09.528Z,16.00
2018-12-13T10:27:37.778Z,13.03
2018-12-13T10:30:06.663Z,15.37
2018-12-13T10:32:34.968Z,17.23
2018-12-13T10:35:03.364Z,23.03
2018-12-13T10:37:31.831Z,13.30
2018-12-13T10:40:00.799Z,12.83
2018-12-13T10:42:29.230Z,12.00
2018-12-13T10:44:57.535Z,14.93
2018-12-13T10:47:25.790Z,12.90
2018-12-13T10:49:54.220Z,18.83
2018-12-13T10:52:22.516Z,11.97
2018-12-13T10:54:51.399Z,12.53
2018-12-13T10:57:20.220Z,12.17
2018-12-13T11:00:12.728Z,11.63
2018-12-13T11:02:55.270Z,11.90
2018-12-13T11:05:24.064Z,15.07
2018-12-13T11:07:52.403Z,13.80
2018-12-13T11:10:25.361Z,13.13
2018-12-13T11:12:51.287Z,15.27
2018-12-13T11:15:19.550Z,14.23
2018-12-13T11:17:48.067Z,11.13
2018-12-13T11:20:16.341Z,11.10
2018-12-13T11:22:44.608Z,12.90
2018-12-13T11:25:12.877Z,11.87
2018-12-13T11:29:56.786Z,11.30
2018-12-13T11:32:26.101Z,11.67
2018-12-13T11:34:54.405Z,14.97
2018-12-13T11:37:22.653Z,12.13
2018-12-13T11:39:50.994Z,11.10
2018-12-13T11:42:19.467Z,15.43
2018-12-13T11:44:47.839Z,16.00
2018-12-13T11:47:16.830Z,14.50
2018-12-13T11:49:45.143Z,13.07
2018-12-13T11:52:13.490Z,13.97
2018-12-13T11:54:44.162Z,15.30
2018-12-13T11:57:12.685Z,14.67
2018-12-13T11:59:41.060Z,17.77
2018-12-13T12:02:09.338Z,11.70
2018-12-13T12:04:37.634Z,13.90
2018-12-13T12:07:06.326Z,17.40
2018-12-13T12:09:34.952Z,18.23
2018-12-13T12:12:03.785Z,15.70
2018-12-13T12:14:32.224Z,14.70
2018-12-13T12:17:00.611Z,14.33
2018-12-13T12:19:28.984Z,15.20
2018-12-13T12:21:59.527Z,15.67
2018-12-13T12:24:27.881Z,14.33
2018-12-13T12:26:57.706Z,18.23
2018-12-13T12:29:27.267Z,17.07
2018-12-13T12:31:56.927Z,18.40
2018-12-13T12:34:25.245Z,15.33
2018-12-13T12:36:54.869Z,16.67
2018-12-13T12:39:24.379Z,13.47
2018-12-13T12:41:54.513Z,14.37
2018-12-13T12:44:26.243Z,16.40
2018-12-13T12:46:55.691Z,18.50
2018-12-13T12:49:25.512Z,15.67
2018-12-13T12:51:55.185Z,11.77
2018-12-13T12:54:24.846Z,15.60
2018-12-13T12:56:55.304Z,16.03
2018-12-13T12:59:24.894Z,14.87
2018-12-13T13:01:54.707Z,18.83
2018-12-13T13:04:24.341Z,15.23
2018-12-13T13:06:54.558Z,17.00
2018-12-13T13:09:25.152Z,16.07
2018-12-13T13:11:56.398Z,20.57
2018-12-13T13:14:26.105Z,13.20
2018-12-13T13:16:55.640Z,14.93
2018-12-13T13:19:24.443Z,18.90
2018-12-13T13:21:54.089Z,14.83
2018-12-13T13:24:23.628Z,16.53
2018-12-13T13:26:52.761Z,18.20
2018-12-13T13:29:24.660Z,16.23
2018-12-13T13:31:54.424Z,14.47
2018-12-13T13:34:22.891Z,13.57
2018-12-13T13:36:51.172Z,16.37
2018-12-13T13:39:19.816Z,13.57
2018-12-13T13:41:48.141Z,15.93
2018-12-13T13:44:18.991Z,12.80
2018-12-13T13:46:49.028Z,13.07
2018-12-13T13:49:18.131Z,12.30
2018-12-13T13:51:46.397Z,13.43
2018-12-13T13:54:14.779Z,15.50
2018-12-13T13:56:43.070Z,18.13
2018-12-13T13:59:14.122Z,13.97
2018-12-13T14:01:42.456Z,13.97
2018-12-13T14:04:11.874Z,15.30
2018-12-13T14:06:40.303Z,14.70
2018-12-13T14:09:08.859Z,17.07
2018-12-13T14:11:37.197Z,13.83
2018-12-13T14:14:05.449Z,15.47
2018-12-13T14:16:33.851Z,16.27
2018-12-13T14:19:02.313Z,14.83
2018-12-13T14:21:30.662Z,13.37
2018-12-13T14:23:58.943Z,12.47
2018-12-13T14:26:27.304Z,21.40
2018-12-13T14:28:55.902Z,13.40
2018-12-13T14:31:25.580Z,15.10
2018-12-13T14:33:53.839Z,12.83
2018-12-13T14:36:22.112Z,14.60
2018-12-13T14:38:50.331Z,16.47
2018-12-13T14:41:20.397Z,13.53
2018-12-13T14:43:48.643Z,14.87
2018-12-13T14:46:16.997Z,14.57
2018-12-13T14:48:45.354Z,15.60
2018-12-13T14:51:13.613Z,12.63
2018-12-13T14:53:41.962Z,15.87
2018-12-13T14:56:10.293Z,18.67
2018-12-13T14:58:38.658Z,15.43
2018-12-13T15:01:07.079Z,15.37
2018-12-13T15:03:36.056Z,15.37
2018-12-13T15:06:04.303Z,17.30
2018-12-13T15:08:32.774Z,14.73
2018-12-13T15:11:01.383Z,15.10
2018-12-13T15:13:30.042Z,15.60
2018-12-13T15:15:58.448Z,14.37
2018-12-13T15:18:26.737Z,18.90
2018-12-13T15:20:55.025Z,15.40
2018-12-13T15:23:23.307Z,16.70
2018-12-13T15:25:51.589Z,15.27
2018-12-13T15:28:19.863Z,14.23
2018-12-13T15:30:48.141Z,16.77
2018-12-13T15:33:16.645Z,14.40
2018-12-13T15:35:45.154Z,16.13
2018-12-13T15:38:13.495Z,16.50
2018-12-13T15:40:41.823Z,13.37
2018-12-13T15:43:10.129Z,13.37
2018-12-13T15:45:38.867Z,14.87
2018-12-13T15:48:07.385Z,17.97
2018-12-13T15:50:35.685Z,15.37
2018-12-13T15:53:04.195Z,14.73
2018-12-13T15:55:32.536Z,15.73
2018-12-13T15:58:00.835Z,17.80
2018-12-13T16:00:29.782Z,16.63
2018-12-13T16:02:59.784Z,13.97
2018-12-13T16:05:28.670Z,16.27
2018-12-13T16:07:57.132Z,16.03
2018-12-13T16:10:25.515Z,14.83
2018-12-13T16:12:53.792Z,16.67
2018-12-13T16:15:22.171Z,15.63
2018-12-13T16:17:50.478Z,17.30
2018-12-13T16:20:20.005Z,17.03
2018-12-13T16:22:48.351Z,17.53
2018-12-13T16:25:16.962Z,16.73
2018-12-13T16:27:45.449Z,18.00
2018-12-13T16:30:13.806Z,16.80
2018-12-13T16:32:42.201Z,15.83
2018-12-13T16:35:10.572Z,16.47
2018-12-13T16:37:38.891Z,15.90
2018-12-13T16:40:10.468Z,18.10
2018-12-13T16:42:39.055Z,18.53
2018-12-13T16:45:07.585Z,19.43
2018-12-13T16:47:35.965Z,15.80
2018-12-13T16:50:04.637Z,18.23
2018-12-13T16:52:33.054Z,17.00
2018-12-13T16:55:02.307Z,18.03
2018-12-13T16:57:30.668Z,19.13
2018-12-13T16:59:59.219Z,17.87
2018-12-13T17:02:27.652Z,17.67
2018-12-13T17:04:55.958Z,15.20
2018-12-13T17:07:27.854Z,17.73
2018-12-13T17:09:57.515Z,18.80
2018-12-13T17:12:26.388Z,25.43
2018-12-13T17:14:55.748Z,19.67
2018-12-13T17:17:24.531Z,16.60
2018-12-13T17:19:53.671Z,14.00
2018-12-13T17:22:21.964Z,18.23
2018-12-13T17:24:50.242Z,19.23
2018-12-13T17:27:18.596Z,17.83
2018-12-13T17:29:46.917Z,22.63
2018-12-13T17:32:15.221Z,17.30
2018-12-13T17:34:44.121Z,17.53
2018-12-13T17:37:12.374Z,16.13
2018-12-13T17:39:40.708Z,15.40
2018-12-13T17:42:08.957Z,14.77
2018-12-13T17:44:37.529Z,13.67
2018-12-13T17:47:05.859Z,16.47
2018-12-13T17:49:34.238Z,15.53
2018-12-13T17:52:02.698Z,12.90
2018-12-13T17:54:33.228Z,13.33
2018-12-13T17:57:04.368Z,14.07
2018-12-13T17:59:32.613Z,15.33
2018-12-13T18:02:01.290Z,17.13
2018-12-13T18:04:29.555Z,16.97
2018-12-13T18:06:57.916Z,15.97
2018-12-13T18:09:26.170Z,16.90
2018-12-13T18:11:54.774Z,14.77
2018-12-13T18:14:23.196Z,14.83
2018-12-13T18:16:51.953Z,15.73
2018-12-13T18:19:20.381Z,12.33
2018-12-13T18:21:48.700Z,15.47
2018-12-13T18:24:16.946Z,16.67
2018-12-13T18:26:45.316Z,16.53
2018-12-13T18:29:13.722Z,17.03
2018-12-13T18:31:42.098Z,16.53
2018-12-13T18:34:12.852Z,12.13
2018-12-13T18:36:41.263Z,16.80
2018-12-13T18:39:09.534Z,16.23
2018-12-13T18:41:38.196Z,12.37
2018-12-13T18:44:06.665Z,12.53
2018-12-13T18:46:35.342Z,12.33
2018-12-13T18:49:03.833Z,14.33
2018-12-13T18:51:32.134Z,15.77
2018-12-13T18:54:00.425Z,15.07
2018-12-13T18:56:28.861Z,15.63
2018-12-13T18:58:58.459Z,14.43
2018-12-13T19:01:26.740Z,13.23
2018-12-13T19:03:55.222Z,15.73
2018-12-13T19:06:23.671Z,15.43
2018-12-13T19:08:52.147Z,15.60
2018-12-13T19:11:20.484Z,16.63
2018-12-13T19:13:48.770Z,16.30
2018-12-13T19:16:17.066Z,16.37
2018-12-13T19:18:45.421Z,14.87
2018-12-13T19:21:13.757Z,20.37
2018-12-13T19:23:42.028Z,15.87
2018-12-13T19:26:10.381Z,12.90
2018-12-13T19:28:38.646Z,17.57
2018-12-13T19:31:09.688Z,12.77
2018-12-13T19:33:38.484Z,18.83
2018-12-13T19:36:08.212Z,18.90
2018-12-13T19:38:36.531Z,12.03
2018-12-13T19:41:05.729Z,13.33
2018-12-13T19:43:34.020Z,14.87
2018-12-13T19:46:02.413Z,15.50
2018-12-13T19:48:30.764Z,13.73
2018-12-13T19:51:00.052Z,14.20
2018-12-13T19:53:28.481Z,10.00
2018-12-13T19:55:56.862Z,14.13
2018-12-13T19:58:25.126Z,11.83
2018-12-13T20:00:53.345Z,12.00
2018-12-13T20:03:21.580Z,14.80
2018-12-13T20:05:49.989Z,15.27
2018-12-13T20:08:18.542Z,13.77
2018-12-13T20:10:46.870Z,11.03
2018-12-13T20:13:15.188Z,11.87
2018-12-13T20:15:43.680Z,12.23
2018-12-13T20:18:11.955Z,10.47
2018-12-13T20:20:40.335Z,13.90
2018-12-13T20:23:09.077Z,16.27
2018-12-13T20:25:37.313Z,11.00
2018-12-13T20:28:05.673Z,10.93
2018-12-13T20:30:34.897Z,13.20
2018-12-13T20:33:03.182Z,11.00
2018-12-13T20:35:38.041Z,12.77
2018-12-13T20:38:06.566Z,18.57
2018-12-13T20:40:34.899Z,11.33
2018-12-13T20:43:03.200Z,10.20
2018-12-13T20:45:31.529Z,14.40
2018-12-13T20:48:00.012Z,13.53
2018-12-13T20:50:28.730Z,14.70
2018-12-13T20:52:57.013Z,14.13
2018-12-13T20:55:25.920Z,12.63
2018-12-13T20:57:54.331Z,15.33
2018-12-13T21:00:22.673Z,15.43
2018-12-13T21:02:51.108Z,14.27
2018-12-13T21:05:20.246Z,13.37
2018-12-13T21:07:48.661Z,15.10
2018-12-13T21:10:17.041Z,11.37
2018-12-13T21:12:45.350Z,14.73
2018-12-13T21:15:14.459Z,17.80
2018-12-13T21:17:42.845Z,17.97
2018-12-13T21:20:11.121Z,16.10
2018-12-13T21:22:39.517Z,13.37
2018-12-13T21:25:07.942Z,11.37
2018-12-13T21:27:36.236Z,14.43
2018-12-13T21:30:05.601Z,13.47
2018-12-13T21:32:33.928Z,11.90
2018-12-13T21:35:02.252Z,14.20
2018-12-13T21:37:30.538Z,16.23
2018-12-13T21:39:58.854Z,12.47
2018-12-13T21:42:27.171Z,12.97
2018-12-13T21:44:55.564Z,17.33
2018-12-13T21:47:23.878Z,14.97
2018-12-13T21:49:52.305Z,15.40
2018-12-13T21:52:20.763Z,15.50
2018-12-13T21:54:49.484Z,14.77
2018-12-13T21:57:18.233Z,16.17
2018-12-13T21:59:46.725Z,12.70
2018-12-13T22:02:14.971Z,17.93
2018-12-13T22:04:43.335Z,15.27
2018-12-13T22:07:11.649Z,14.53
2018-12-13T22:09:39.966Z,13.87
2018-12-13T22:12:09.479Z,13.53
2018-12-13T22:14:37.989Z,14.13
2018-12-13T22:17:07.057Z,14.90
2018-12-13T22:19:35.737Z,15.93
2018-12-13T22:22:04.312Z,18.53
2018-12-13T22:24:32.739Z,15.03
2018-12-13T22:27:02.500Z,17.23
2018-12-13T22:29:31.745Z,17.43
2018-12-13T22:32:00.462Z,21.20
2018-12-13T22:34:28.995Z,12.67
2018-12-13T22:36:57.537Z,18.07
2018-12-13T22:39:25.772Z,12.57
2018-12-13T22:41:54.028Z,14.80
2018-12-13T22:44:22.310Z,15.50
2018-12-13T22:46:50.865Z,17.77
2018-12-13T22:49:19.234Z,15.30
2018-12-13T22:51:47.487Z,16.67
2018-12-13T22:54:15.768Z,16.27
2018-12-13T22:56:44.199Z,17.80
2018-12-13T22:59:12.560Z,16.60
2018-12-13T23:01:40.882Z,17.13
2018-12-13T23:04:10.045Z,18.37
2018-12-13T23:06:39.042Z,16.67
2018-12-13T23:09:07.658Z,15.37
2018-12-13T23:11:37.109Z,22.20
2018-12-13T23:14:05.978Z,18.20
2018-12-13T23:16:34.693Z,17.23
2018-12-13T23:19:03.036Z,20.43
2018-12-13T23:21:31.972Z,16.97
2018-12-13T23:24:00.333Z,17.00
2018-12-13T23:26:28.608Z,20.63
2018-12-13T23:28:57.452Z,20.40
2018-12-13T23:31:25.790Z,18.97
2018-12-13T23:33:54.056Z,17.30
2018-12-13T23:36:23.430Z,14.47
2018-12-13T23:38:51.798Z,18.83
2018-12-13T23:41:20.069Z,16.17
2018-12-13T23:43:48.644Z,17.37
2018-12-13T23:46:16.890Z,16.03
2018-12-13T23:48:45.194Z,13.97
2018-12-13T23:51:13.438Z,13.40
2018-12-13T23:53:41.686Z,14.13
2018-12-13T23:56:09.951Z,16.40
2018-12-13T23:58:39.600Z,14.63
